sensor_id;sensor_type;location;lat;lon;timestamp;pressure;altitude;pressure_sealevel;temperature;humidity
40171;BME280;37650;52.790;18.268;2023-02-19T00:02:01;100085.77;;;2.34;100.00
40171;BME280;37650;52.790;18.268;2023-02-19T00:05:39;100095.11;;;2.34;100.00
40171;BME280;37650;52.790;18.268;2023-02-19T00:09:00;100094.05;;;2.36;100.00
40171;BME280;37650;52.790;18.268;2023-02-19T00:12:22;100088.85;;;2.37;100.00
40171;BME280;37650;52.790;18.268;2023-02-19T00:15:43;100088.36;;;2.35;100.00
40171;BME280;37650;52.790;18.268;2023-02-19T00:19:07;100090.92;;;2.36;100.00
40171;BME280;37650;52.790;18.268;2023-02-19T00:22:28;100087.80;;;2.37;100.00
40171;BME280;37650;52.790;18.268;2023-02-19T00:25:53;100082.43;;;2.39;100.00
40171;BME280;37650;52.790;18.268;2023-02-19T00:29:19;100080.17;;;2.40;100.00
40171;BME280;37650;52.790;18.268;2023-02-19T00:32:41;100076.55;;;2.39;100.00
40171;BME280;37650;52.790;18.268;2023-02-19T00:36:05;100082.10;;;2.38;100.00
40171;BME280;37650;52.790;18.268;2023-02-19T00:39:29;100085.73;;;2.39;100.00
40171;BME280;37650;52.790;18.268;2023-02-19T00:42:54;100083.30;;;2.40;100.00
40171;BME280;37650;52.790;18.268;2023-02-19T00:46:38;100086.56;;;2.41;100.00
40171;BME280;37650;52.790;18.268;2023-02-19T00:50:16;100089.18;;;2.40;100.00
40171;BME280;37650;52.790;18.268;2023-02-19T00:53:37;100089.70;;;2.39;100.00
40171;BME280;37650;52.790;18.268;2023-02-19T00:57:03;100095.07;;;2.39;100.00
40171;BME280;37650;52.790;18.268;2023-02-19T01:00:26;100089.86;;;2.41;100.00
40171;BME280;37650;52.790;18.268;2023-02-19T01:03:48;100086.05;;;2.41;100.00
40171;BME280;37650;52.790;18.268;2023-02-19T01:07:15;100086.23;;;2.40;100.00
40171;BME280;37650;52.790;18.268;2023-02-19T01:10:46;100080.70;;;2.37;100.00
40171;BME280;37650;52.790;18.268;2023-02-19T01:14:12;100078.66;;;2.34;100.00
40171;BME280;37650;52.790;18.268;2023-02-19T01:17:37;100080.39;;;2.35;100.00
40171;BME280;37650;52.790;18.268;2023-02-19T01:21:11;100077.42;;;2.36;100.00
40171;BME280;37650;52.790;18.268;2023-02-19T01:24:33;100078.11;;;2.37;100.00
40171;BME280;37650;52.790;18.268;2023-02-19T01:28:07;100073.64;;;2.35;100.00
40171;BME280;37650;52.790;18.268;2023-02-19T01:31:48;100080.71;;;2.37;100.00
40171;BME280;37650;52.790;18.268;2023-02-19T01:35:09;100080.05;;;2.34;100.00
40171;BME280;37650;52.790;18.268;2023-02-19T01:38:43;100077.31;;;2.30;100.00
40171;BME280;37650;52.790;18.268;2023-02-19T01:42:15;100079.77;;;2.26;100.00
40171;BME280;37650;52.790;18.268;2023-02-19T01:45:38;100078.03;;;2.26;100.00
40171;BME280;37650;52.790;18.268;2023-02-19T01:49:19;100073.23;;;2.23;100.00
40171;BME280;37650;52.790;18.268;2023-02-19T01:52:41;100072.36;;;2.21;100.00
40171;BME280;37650;52.790;18.268;2023-02-19T01:56:04;100064.27;;;2.19;100.00
40171;BME280;37650;52.790;18.268;2023-02-19T02:00:26;100067.59;;;2.12;100.00
40171;BME280;37650;52.790;18.268;2023-02-19T02:03:48;100065.89;;;2.07;100.00
40171;BME280;37650;52.790;18.268;2023-02-19T02:07:13;100065.58;;;2.03;100.00
40171;BME280;37650;52.790;18.268;2023-02-19T02:11:07;100062.65;;;2.02;100.00
40171;BME280;37650;52.790;18.268;2023-02-19T02:14:30;100057.83;;;2.00;100.00
40171;BME280;37650;52.790;18.268;2023-02-19T02:18:22;100048.51;;;1.96;100.00
40171;BME280;37650;52.790;18.268;2023-02-19T02:22:02;100046.09;;;1.97;100.00
40171;BME280;37650;52.790;18.268;2023-02-19T02:25:39;100043.33;;;1.97;100.00
40171;BME280;37650;52.790;18.268;2023-02-19T02:36:47;100026.21;;;1.94;100.00
40171;BME280;37650;52.790;18.268;2023-02-19T02:40:16;100022.79;;;1.91;100.00
40171;BME280;37650;52.790;18.268;2023-02-19T02:43:51;100014.66;;;1.90;100.00
40171;BME280;37650;52.790;18.268;2023-02-19T02:47:20;100012.75;;;1.88;100.00
40171;BME280;37650;52.790;18.268;2023-02-19T02:54:59;100006.56;;;1.84;100.00
40171;BME280;37650;52.790;18.268;2023-02-19T02:58:26;100001.77;;;1.79;100.00
40171;BME280;37650;52.790;18.268;2023-02-19T03:02:03;99993.67;;;1.75;100.00
40171;BME280;37650;52.790;18.268;2023-02-19T03:05:37;99990.23;;;1.71;100.00
40171;BME280;37650;52.790;18.268;2023-02-19T03:09:25;99985.24;;;1.69;100.00
40171;BME280;37650;52.790;18.268;2023-02-19T03:12:54;99981.27;;;1.68;100.00
40171;BME280;37650;52.790;18.268;2023-02-19T03:16:46;99982.65;;;1.67;100.00
40171;BME280;37650;52.790;18.268;2023-02-19T03:20:29;99990.45;;;1.65;100.00
40171;BME280;37650;52.790;18.268;2023-02-19T03:24:06;99996.35;;;1.62;100.00
40171;BME280;37650;52.790;18.268;2023-02-19T03:28:08;99996.87;;;1.62;100.00
40171;BME280;37650;52.790;18.268;2023-02-19T03:32:16;99993.23;;;1.64;100.00
40171;BME280;37650;52.790;18.268;2023-02-19T03:35:51;99992.19;;;1.65;100.00
40171;BME280;37650;52.790;18.268;2023-02-19T03:39:20;99996.30;;;1.66;100.00
40171;BME280;37650;52.790;18.268;2023-02-19T03:43:20;100001.02;;;1.64;100.00
40171;BME280;37650;52.790;18.268;2023-02-19T03:47:18;100008.77;;;1.66;100.00
40171;BME280;37650;52.790;18.268;2023-02-19T03:50:47;100002.71;;;1.70;100.00
40171;BME280;37650;52.790;18.268;2023-02-19T03:58:07;99989.01;;;1.72;100.00
40171;BME280;37650;52.790;18.268;2023-02-19T04:01:36;99987.63;;;1.71;100.00
40171;BME280;37650;52.790;18.268;2023-02-19T04:05:18;99993.73;;;1.69;100.00
40171;BME280;37650;52.790;18.268;2023-02-19T04:08:46;99993.72;;;1.67;100.00
40171;BME280;37650;52.790;18.268;2023-02-19T04:12:13;99988.02;;;1.66;100.00
40171;BME280;37650;52.790;18.268;2023-02-19T04:15:43;99984.21;;;1.66;100.00
40171;BME280;37650;52.790;18.268;2023-02-19T04:19:13;99982.86;;;1.65;100.00
40171;BME280;37650;52.790;18.268;2023-02-19T04:22:41;99984.05;;;1.65;100.00
40171;BME280;37650;52.790;18.268;2023-02-19T04:26:09;99979.71;;;1.68;100.00
40171;BME280;37650;52.790;18.268;2023-02-19T04:29:37;99982.61;;;1.72;100.00
40171;BME280;37650;52.790;18.268;2023-02-19T04:33:07;99981.23;;;1.72;100.00
40171;BME280;37650;52.790;18.268;2023-02-19T04:36:31;99988.66;;;1.74;100.00
40171;BME280;37650;52.790;18.268;2023-02-19T04:39:55;99992.63;;;1.76;100.00
40171;BME280;37650;52.790;18.268;2023-02-19T04:43:17;99993.65;;;1.77;100.00
40171;BME280;37650;52.790;18.268;2023-02-19T04:46:40;99993.64;;;1.79;100.00
40171;BME280;37650;52.790;18.268;2023-02-19T04:50:03;99993.64;;;1.80;100.00
40171;BME280;37650;52.790;18.268;2023-02-19T04:53:25;100001.59;;;1.78;100.00
40171;BME280;37650;52.790;18.268;2023-02-19T04:56:46;99999.52;;;1.78;100.00
40171;BME280;37650;52.790;18.268;2023-02-19T05:00:14;99998.31;;;1.79;100.00
40171;BME280;37650;52.790;18.268;2023-02-19T05:03:47;99996.58;;;1.79;100.00
40171;BME280;37650;52.790;18.268;2023-02-19T05:07:08;99998.14;;;1.79;100.00
40171;BME280;37650;52.790;18.268;2023-02-19T05:10:40;99999.52;;;1.79;100.00
40171;BME280;37650;52.790;18.268;2023-02-19T05:14:21;99997.98;;;1.77;100.00
40171;BME280;37650;52.790;18.268;2023-02-19T05:17:45;100002.51;;;1.73;100.00
40171;BME280;37650;52.790;18.268;2023-02-19T05:21:07;99999.23;;;1.71;100.00
40171;BME280;37650;52.790;18.268;2023-02-19T05:24:29;99995.44;;;1.70;100.00
40171;BME280;37650;52.790;18.268;2023-02-19T05:27:51;99992.51;;;1.69;100.00
40171;BME280;37650;52.790;18.268;2023-02-19T05:31:36;99985.39;;;1.71;100.00
40171;BME280;37650;52.790;18.268;2023-02-19T05:35:21;99986.96;;;1.71;100.00
40171;BME280;37650;52.790;18.268;2023-02-19T05:38:46;99990.95;;;1.68;100.00
40171;BME280;37650;52.790;18.268;2023-02-19T05:42:25;99990.98;;;1.64;100.00
40171;BME280;37650;52.790;18.268;2023-02-19T05:45:46;99996.70;;;1.62;100.00
40171;BME280;37650;52.790;18.268;2023-02-19T05:49:10;99989.10;;;1.60;100.00
40171;BME280;37650;52.790;18.268;2023-02-19T05:52:43;99991.34;;;1.62;100.00
40171;BME280;37650;52.790;18.268;2023-02-19T05:56:26;99995.14;;;1.61;100.00
40171;BME280;37650;52.790;18.268;2023-02-19T05:59:49;99997.24;;;1.59;100.00
40171;BME280;37650;52.790;18.268;2023-02-19T06:03:11;99992.41;;;1.59;100.00
40171;BME280;37650;52.790;18.268;2023-02-19T06:06:45;99988.06;;;1.60;100.00
40171;BME280;37650;52.790;18.268;2023-02-19T06:10:08;99987.36;;;1.64;100.00
40171;BME280;37650;52.790;18.268;2023-02-19T06:13:38;99988.19;;;1.67;100.00
40171;BME280;37650;52.790;18.268;2023-02-19T06:17:02;99998.21;;;1.68;100.00
40171;BME280;37650;52.790;18.268;2023-02-19T06:20:22;100001.50;;;1.66;100.00
40171;BME280;37650;52.790;18.268;2023-02-19T06:23:51;100007.40;;;1.64;100.00
40171;BME280;37650;52.790;18.268;2023-02-19T06:27:14;100013.77;;;1.66;100.00
40171;BME280;37650;52.790;18.268;2023-02-19T06:30:57;100014.81;;;1.67;100.00
40171;BME280;37650;52.790;18.268;2023-02-19T06:34:33;100018.10;;;1.70;100.00
40171;BME280;37650;52.790;18.268;2023-02-19T06:37:56;100021.17;;;1.72;100.00
40171;BME280;37650;52.790;18.268;2023-02-19T06:41:23;100027.40;;;1.73;100.00
40171;BME280;37650;52.790;18.268;2023-02-19T06:44:53;100031.55;;;1.75;100.00
40171;BME280;37650;52.790;18.268;2023-02-19T06:48:14;100032.55;;;1.78;100.00
40171;BME280;37650;52.790;18.268;2023-02-19T06:51:44;100030.10;;;1.83;100.00
40171;BME280;37650;52.790;18.268;2023-02-19T06:55:08;100036.31;;;1.86;100.00
40171;BME280;37650;52.790;18.268;2023-02-19T06:58:39;100034.89;;;1.88;100.00
40171;BME280;37650;52.790;18.268;2023-02-19T07:02:05;100039.21;;;1.88;100.00
40171;BME280;37650;52.790;18.268;2023-02-19T07:05:58;100044.58;;;1.90;100.00
40171;BME280;37650;52.790;18.268;2023-02-19T07:09:20;100043.70;;;1.92;100.00
40171;BME280;37650;52.790;18.268;2023-02-19T07:12:43;100046.27;;;1.96;100.00
40171;BME280;37650;52.790;18.268;2023-02-19T07:16:09;100048.64;;;2.02;100.00
40171;BME280;37650;52.790;18.268;2023-02-19T07:19:31;100050.14;;;2.09;100.00
40171;BME280;37650;52.790;18.268;2023-02-19T07:23:04;100045.79;;;2.14;100.00
40171;BME280;37650;52.790;18.268;2023-02-19T07:26:32;100046.27;;;2.16;100.00
40171;BME280;37650;52.790;18.268;2023-02-19T07:29:53;100051.26;;;2.21;100.00
40171;BME280;37650;52.790;18.268;2023-02-19T07:33:15;100053.11;;;2.26;100.00
40171;BME280;37650;52.790;18.268;2023-02-19T07:36:41;100055.82;;;2.32;100.00
40171;BME280;37650;52.790;18.268;2023-02-19T07:40:36;100055.76;;;2.39;100.00
40171;BME280;37650;52.790;18.268;2023-02-19T07:44:04;100060.86;;;2.50;100.00
40171;BME280;37650;52.790;18.268;2023-02-19T07:47:25;100065.95;;;2.61;100.00
40171;BME280;37650;52.790;18.268;2023-02-19T07:55:32;100073.73;;;2.95;100.00
40171;BME280;37650;52.790;18.268;2023-02-19T07:58:55;100068.19;;;3.10;100.00
40171;BME280;37650;52.790;18.268;2023-02-19T08:02:17;100071.69;;;3.22;100.00
40171;BME280;37650;52.790;18.268;2023-02-19T08:06:15;100072.65;;;3.28;100.00
40171;BME280;37650;52.790;18.268;2023-02-19T08:09:36;100075.58;;;3.31;100.00
40171;BME280;37650;52.790;18.268;2023-02-19T08:12:59;100082.48;;;3.32;100.00
40171;BME280;37650;52.790;18.268;2023-02-19T08:16:39;100087.83;;;3.35;100.00
40171;BME280;37650;52.790;18.268;2023-02-19T08:20:00;100095.29;;;3.35;100.00
40171;BME280;37650;52.790;18.268;2023-02-19T08:23:22;100094.31;;;3.42;100.00
40171;BME280;37650;52.790;18.268;2023-02-19T08:26:43;100098.16;;;3.54;100.00
40171;BME280;37650;52.790;18.268;2023-02-19T08:30:05;100095.38;;;3.68;100.00
40171;BME280;37650;52.790;18.268;2023-02-19T08:33:29;100095.91;;;3.92;100.00
40171;BME280;37650;52.790;18.268;2023-02-19T08:36:51;100098.68;;;4.04;100.00
40171;BME280;37650;52.790;18.268;2023-02-19T08:40:12;100099.89;;;4.16;100.00
40171;BME280;37650;52.790;18.268;2023-02-19T08:43:35;100100.95;;;4.25;100.00
40171;BME280;37650;52.790;18.268;2023-02-19T08:46:57;100108.46;;;4.22;100.00
40171;BME280;37650;52.790;18.268;2023-02-19T08:50:18;100109.88;;;4.32;100.00
40171;BME280;37650;52.790;18.268;2023-02-19T08:53:40;100113.17;;;4.32;100.00
40171;BME280;37650;52.790;18.268;2023-02-19T08:57:01;100117.94;;;4.38;100.00
40171;BME280;37650;52.790;18.268;2023-02-19T09:00:24;100120.39;;;4.48;100.00
40171;BME280;37650;52.790;18.268;2023-02-19T09:03:47;100131.73;;;4.65;100.00
40171;BME280;37650;52.790;18.268;2023-02-19T09:07:09;100133.06;;;4.58;100.00
40171;BME280;37650;52.790;18.268;2023-02-19T09:10:32;100135.48;;;4.89;100.00
40171;BME280;37650;52.790;18.268;2023-02-19T09:13:55;100137.23;;;5.35;100.00
40171;BME280;37650;52.790;18.268;2023-02-19T09:17:17;100138.70;;;5.48;100.00
40171;BME280;37650;52.790;18.268;2023-02-19T09:20:38;100140.27;;;5.48;100.00
40171;BME280;37650;52.790;18.268;2023-02-19T09:23:59;100147.51;;;5.77;100.00
40171;BME280;37650;52.790;18.268;2023-02-19T09:27:20;100141.13;;;6.14;100.00
40171;BME280;37650;52.790;18.268;2023-02-19T09:30:42;100146.88;;;5.99;100.00
40171;BME280;37650;52.790;18.268;2023-02-19T09:34:04;100148.48;;;5.98;100.00
40171;BME280;37650;52.790;18.268;2023-02-19T09:37:26;100156.51;;;6.05;100.00
40171;BME280;37650;52.790;18.268;2023-02-19T09:40:48;100159.32;;;6.03;100.00
40171;BME280;37650;52.790;18.268;2023-02-19T09:44:34;100163.54;;;5.85;100.00
40171;BME280;37650;52.790;18.268;2023-02-19T09:47:55;100170.17;;;5.67;100.00
40171;BME280;37650;52.790;18.268;2023-02-19T09:51:18;100172.59;;;5.76;100.00
40171;BME280;37650;52.790;18.268;2023-02-19T09:54:40;100176.29;;;5.83;100.00
40171;BME280;37650;52.790;18.268;2023-02-19T09:58:15;100179.95;;;5.99;100.00
40171;BME280;37650;52.790;18.268;2023-02-19T10:01:39;100180.42;;;6.33;100.00
40171;BME280;37650;52.790;18.268;2023-02-19T10:05:02;100187.11;;;6.60;100.00
40171;BME280;37650;52.790;18.268;2023-02-19T10:08:24;100187.11;;;7.41;100.00
40171;BME280;37650;52.790;18.268;2023-02-19T10:11:47;100188.92;;;7.94;100.00
40171;BME280;37650;52.790;18.268;2023-02-19T10:15:11;100192.35;;;8.82;100.00
40171;BME280;37650;52.790;18.268;2023-02-19T10:18:39;100187.88;;;9.21;97.63
40171;BME280;37650;52.790;18.268;2023-02-19T10:23:12;100202.02;;;9.41;95.27
40171;BME280;37650;52.790;18.268;2023-02-19T10:26:35;100205.76;;;8.94;95.65
40171;BME280;37650;52.790;18.268;2023-02-19T10:29:58;100204.49;;;9.00;94.31
40171;BME280;37650;52.790;18.268;2023-02-19T10:33:21;100208.62;;;9.96;93.44
40171;BME280;37650;52.790;18.268;2023-02-19T10:36:42;100210.59;;;9.81;93.55
40171;BME280;37650;52.790;18.268;2023-02-19T10:40:24;100213.98;;;10.22;87.53
40171;BME280;37650;52.790;18.268;2023-02-19T10:44:13;100214.36;;;9.29;86.33
40171;BME280;37650;52.790;18.268;2023-02-19T10:47:36;100218.50;;;8.11;88.27
40171;BME280;37650;52.790;18.268;2023-02-19T10:51:01;100218.02;;;7.72;89.19
40171;BME280;37650;52.790;18.268;2023-02-19T10:54:29;100217.54;;;9.37;86.45
40171;BME280;37650;52.790;18.268;2023-02-19T10:57:51;100221.85;;;9.99;85.53
40171;BME280;37650;52.790;18.268;2023-02-19T11:04:36;100208.27;;;11.75;82.91
40171;BME280;37650;52.790;18.268;2023-02-19T11:07:59;100204.70;;;12.86;77.99
40171;BME280;37650;52.790;18.268;2023-02-19T11:11:24;100215.39;;;12.29;79.85
40171;BME280;37650;52.790;18.268;2023-02-19T11:14:47;100220.37;;;11.11;76.65
40171;BME280;37650;52.790;18.268;2023-02-19T11:21:32;100227.36;;;8.91;79.55
40171;BME280;37650;52.790;18.268;2023-02-19T11:25:19;100231.66;;;8.87;78.84
40171;BME280;37650;52.790;18.268;2023-02-19T11:28:38;100226.82;;;11.93;74.91
40171;BME280;37650;52.790;18.268;2023-02-19T11:35:41;100241.34;;;9.79;76.20
40171;BME280;37650;52.790;18.268;2023-02-19T11:39:26;100240.34;;;9.38;76.49
40171;BME280;37650;52.790;18.268;2023-02-19T11:51:20;100233.98;;;16.19;59.65
40171;BME280;37650;52.790;18.268;2023-02-19T11:55:12;100235.65;;;17.16;57.07
40171;BME280;37650;52.790;18.268;2023-02-19T11:58:59;100235.65;;;15.68;56.46
40171;BME280;37650;52.790;18.268;2023-02-19T12:02:28;100237.31;;;15.43;53.22
40171;BME280;37650;52.790;18.268;2023-02-19T12:09:42;100244.96;;;16.24;50.18
40171;BME280;37650;52.790;18.268;2023-02-19T12:13:59;100244.28;;;16.03;49.17
40171;BME280;37650;52.790;18.268;2023-02-19T12:25:28;100247.05;;;19.77;44.31
40171;BME280;37650;52.790;18.268;2023-02-19T12:32:41;100261.46;;;17.63;39.82
40171;BME280;37650;52.790;18.268;2023-02-19T12:46:38;100281.83;;;14.04;43.20
40171;BME280;37650;52.790;18.268;2023-02-19T12:50:08;100290.65;;;11.73;45.40
40171;BME280;37650;52.790;18.268;2023-02-19T12:54:39;100299.69;;;10.22;47.68
40171;BME280;37650;52.790;18.268;2023-02-19T12:57:40;100297.87;;;10.38;48.76
40171;BME280;37650;52.790;18.268;2023-02-19T13:01:06;100299.67;;;9.69;49.62
40171;BME280;37650;52.790;18.268;2023-02-19T13:04:42;100308.56;;;8.73;51.22
40171;BME280;37650;52.790;18.268;2023-02-19T13:08:31;100314.14;;;8.33;52.74
40171;BME280;37650;52.790;18.268;2023-02-19T13:12:10;100308.48;;;10.27;50.79
40171;BME280;37650;52.790;18.268;2023-02-19T13:15:40;100298.87;;;11.58;47.96
40171;BME280;37650;52.790;18.268;2023-02-19T13:19:03;100309.45;;;14.31;46.72
40171;BME280;37650;52.790;18.268;2023-02-19T13:22:40;100306.44;;;16.20;42.76
40171;BME280;37650;52.790;18.268;2023-02-19T13:26:48;100316.52;;;14.64;43.09
40171;BME280;37650;52.790;18.268;2023-02-19T13:37:47;100342.84;;;9.02;50.24
40171;BME280;37650;52.790;18.268;2023-02-19T13:41:25;100349.54;;;8.42;52.03
40171;BME280;37650;52.790;18.268;2023-02-19T13:44:48;100346.23;;;9.49;51.78
40171;BME280;37650;52.790;18.268;2023-02-19T13:51:47;100328.90;;;15.27;43.60
40171;BME280;37650;52.790;18.268;2023-02-19T13:59:36;100331.58;;;17.56;39.79
40171;BME280;37650;52.790;18.268;2023-02-19T14:10:56;100335.14;;;15.60;38.46
40171;BME280;37650;52.790;18.268;2023-02-19T14:17:44;100349.73;;;13.53;39.50
40171;BME280;37650;52.790;18.268;2023-02-19T14:21:24;100351.02;;;13.66;39.26
40171;BME280;37650;52.790;18.268;2023-02-19T14:24:56;100360.23;;;14.30;39.52
40171;BME280;37650;52.790;18.268;2023-02-19T14:31:50;100375.43;;;15.49;38.70
40171;BME280;37650;52.790;18.268;2023-02-19T14:35:19;100377.79;;;15.90;38.40
40171;BME280;37650;52.790;18.268;2023-02-19T14:39:04;100383.38;;;16.15;36.91
40171;BME280;37650;52.790;18.268;2023-02-19T14:42:28;100389.17;;;16.12;35.61
40171;BME280;37650;52.790;18.268;2023-02-19T14:45:55;100399.38;;;13.69;36.26
40171;BME280;37650;52.790;18.268;2023-02-19T14:52:58;100420.52;;;9.79;40.72
40171;BME280;37650;52.790;18.268;2023-02-19T14:56:27;100427.98;;;8.68;42.27
40171;BME280;37650;52.790;18.268;2023-02-19T15:00:00;100441.48;;;7.81;44.60
40171;BME280;37650;52.790;18.268;2023-02-19T15:03:34;100440.94;;;7.22;46.09
40171;BME280;37650;52.790;18.268;2023-02-19T15:06:59;100443.14;;;6.60;47.21
40171;BME280;37650;52.790;18.268;2023-02-19T15:10:23;100450.52;;;6.11;48.74
40171;BME280;37650;52.790;18.268;2023-02-19T15:13:53;100456.36;;;5.72;49.57
40171;BME280;37650;52.790;18.268;2023-02-19T15:17:24;100453.94;;;5.38;50.42
40171;BME280;37650;52.790;18.268;2023-02-19T15:20:48;100457.43;;;5.12;51.13
40171;BME280;37650;52.790;18.268;2023-02-19T15:24:14;100466.71;;;4.94;51.74
40171;BME280;37650;52.790;18.268;2023-02-19T15:27:36;100472.52;;;4.74;52.51
40171;BME280;37650;52.790;18.268;2023-02-19T15:34:30;100486.94;;;4.43;52.41
40171;BME280;37650;52.790;18.268;2023-02-19T15:37:55;100498.55;;;4.29;52.53
40171;BME280;37650;52.790;18.268;2023-02-19T15:41:21;100504.23;;;4.14;52.83
40171;BME280;37650;52.790;18.268;2023-02-19T15:48:19;100515.73;;;3.88;54.32
40171;BME280;37650;52.790;18.268;2023-02-19T15:51:54;100518.42;;;3.77;55.14
40171;BME280;37650;52.790;18.268;2023-02-19T15:55:59;100523.00;;;3.67;55.60
40171;BME280;37650;52.790;18.268;2023-02-19T16:02:36;100527.84;;;3.43;56.85
40171;BME280;37650;52.790;18.268;2023-02-19T16:06:12;100531.54;;;3.33;57.97
40171;BME280;37650;52.790;18.268;2023-02-19T16:09:37;100535.58;;;3.22;58.74
40171;BME280;37650;52.790;18.268;2023-02-19T16:13:04;100538.05;;;3.10;59.55
40171;BME280;37650;52.790;18.268;2023-02-19T16:16:35;100547.29;;;3.00;60.21
40171;BME280;37650;52.790;18.268;2023-02-19T16:20:01;100556.48;;;2.90;60.57
40171;BME280;37650;52.790;18.268;2023-02-19T16:23:24;100559.48;;;2.80;61.17
40171;BME280;37650;52.790;18.268;2023-02-19T16:26:48;100565.02;;;2.74;61.72
40171;BME280;37650;52.790;18.268;2023-02-19T16:33:42;100574.94;;;2.57;62.01
40171;BME280;37650;52.790;18.268;2023-02-19T16:41:09;100593.30;;;2.45;62.65
40171;BME280;37650;52.790;18.268;2023-02-19T16:44:35;100597.29;;;2.39;62.86
40171;BME280;37650;52.790;18.268;2023-02-19T16:47:59;100597.29;;;2.33;63.33
40171;BME280;37650;52.790;18.268;2023-02-19T16:51:24;100596.08;;;2.26;63.56
40171;BME280;37650;52.790;18.268;2023-02-19T16:54:48;100604.73;;;2.20;63.84
40171;BME280;37650;52.790;18.268;2023-02-19T16:58:12;100608.71;;;2.16;64.05
40171;BME280;37650;52.790;18.268;2023-02-19T17:01:35;100625.49;;;2.09;64.55
40171;BME280;37650;52.790;18.268;2023-02-19T17:05:00;100637.42;;;2.04;64.65
40171;BME280;37650;52.790;18.268;2023-02-19T17:08:36;100645.73;;;2.01;64.54
40171;BME280;37650;52.790;18.268;2023-02-19T17:11:58;100649.17;;;1.99;64.77
40171;BME280;37650;52.790;18.268;2023-02-19T17:15:22;100650.92;;;1.96;64.74
40171;BME280;37650;52.790;18.268;2023-02-19T17:18:47;100651.77;;;1.92;64.87
40171;BME280;37650;52.790;18.268;2023-02-19T17:22:11;100657.80;;;1.88;64.85
40171;BME280;37650;52.790;18.268;2023-02-19T17:25:39;100657.10;;;1.84;65.20
40171;BME280;37650;52.790;18.268;2023-02-19T17:29:05;100647.91;;;1.79;65.43
40171;BME280;37650;52.790;18.268;2023-02-19T17:32:39;100650.66;;;1.72;65.95
40171;BME280;37650;52.790;18.268;2023-02-19T17:36:02;100655.83;;;1.63;66.19
40171;BME280;37650;52.790;18.268;2023-02-19T17:39:25;100659.09;;;1.58;66.65
40171;BME280;37650;52.790;18.268;2023-02-19T17:42:49;100668.06;;;1.51;66.97
40171;BME280;37650;52.790;18.268;2023-02-19T17:46:17;100678.91;;;1.44;67.41
40171;BME280;37650;52.790;18.268;2023-02-19T17:49:42;100684.05;;;1.36;67.82
40171;BME280;37650;52.790;18.268;2023-02-19T17:53:08;100689.21;;;1.29;68.20
40171;BME280;37650;52.790;18.268;2023-02-19T17:56:31;100697.29;;;1.23;68.29
40171;BME280;37650;52.790;18.268;2023-02-19T17:59:55;100706.27;;;1.20;68.48
40171;BME280;37650;52.790;18.268;2023-02-19T18:03:19;100709.19;;;1.17;68.93
40171;BME280;37650;52.790;18.268;2023-02-19T18:06:43;100710.02;;;1.14;69.12
40171;BME280;37650;52.790;18.268;2023-02-19T18:10:06;100718.11;;;1.07;69.18
40171;BME280;37650;52.790;18.268;2023-02-19T18:13:30;100727.44;;;1.07;69.58
40171;BME280;37650;52.790;18.268;2023-02-19T18:16:53;100726.73;;;1.06;70.09
40171;BME280;37650;52.790;18.268;2023-02-19T18:20:22;100724.65;;;1.03;70.45
40171;BME280;37650;52.790;18.268;2023-02-19T18:23:46;100733.27;;;1.01;70.96
40171;BME280;37650;52.790;18.268;2023-02-19T18:27:09;100743.60;;;0.98;71.20
40171;BME280;37650;52.790;18.268;2023-02-19T18:30:31;100752.73;;;0.93;71.53
40171;BME280;37650;52.790;18.268;2023-02-19T18:33:54;100756.48;;;0.89;72.26
40171;BME280;37650;52.790;18.268;2023-02-19T18:37:21;100764.91;;;0.85;72.96
40171;BME280;37650;52.790;18.268;2023-02-19T18:40:43;100760.91;;;0.81;73.61
40171;BME280;37650;52.790;18.268;2023-02-19T18:44:08;100767.98;;;0.78;73.88
40171;BME280;37650;52.790;18.268;2023-02-19T18:47:31;100769.15;;;0.75;73.88
40171;BME280;37650;52.790;18.268;2023-02-19T18:50:54;100772.91;;;0.72;74.08
40171;BME280;37650;52.790;18.268;2023-02-19T18:54:21;100771.17;;;0.69;74.47
40171;BME280;37650;52.790;18.268;2023-02-19T18:57:46;100761.80;;;0.66;75.29
40171;BME280;37650;52.790;18.268;2023-02-19T19:01:13;100762.48;;;0.63;75.57
40171;BME280;37650;52.790;18.268;2023-02-19T19:04:40;100753.30;;;0.60;75.96
40171;BME280;37650;52.790;18.268;2023-02-19T19:08:04;100751.39;;;0.60;76.45
40171;BME280;37650;52.790;18.268;2023-02-19T19:11:27;100753.11;;;0.57;76.68
40171;BME280;37650;52.790;18.268;2023-02-19T19:14:49;100752.55;;;0.54;76.91
40171;BME280;37650;52.790;18.268;2023-02-19T19:18:13;100749.22;;;0.49;77.39
40171;BME280;37650;52.790;18.268;2023-02-19T19:21:34;100744.05;;;0.48;78.22
40171;BME280;37650;52.790;18.268;2023-02-19T19:24:57;100744.87;;;0.46;77.90
40171;BME280;37650;52.790;18.268;2023-02-19T19:28:22;100752.67;;;0.48;78.65
40171;BME280;37650;52.790;18.268;2023-02-19T19:31:45;100758.89;;;0.50;78.61
40171;BME280;37650;52.790;18.268;2023-02-19T19:35:12;100760.82;;;0.52;78.86
40171;BME280;37650;52.790;18.268;2023-02-19T19:38:38;100759.76;;;0.50;79.26
40171;BME280;37650;52.790;18.268;2023-02-19T19:42:03;100759.77;;;0.51;79.35
40171;BME280;37650;52.790;18.268;2023-02-19T19:45:26;100769.11;;;0.53;79.32
40171;BME280;37650;52.790;18.268;2023-02-19T19:48:50;100765.49;;;0.53;79.45
40171;BME280;37650;52.790;18.268;2023-02-19T19:52:14;100768.27;;;0.55;79.17
40171;BME280;37650;52.790;18.268;2023-02-19T19:55:37;100765.03;;;0.58;80.02
40171;BME280;37650;52.790;18.268;2023-02-19T19:59:01;100760.36;;;0.60;80.20
40171;BME280;37650;52.790;18.268;2023-02-19T20:02:26;100764.38;;;0.62;80.26